Fontana Dam, NC

6:48 PM EDT on March 27, 2015 (GMT -0400)
Buckner Branch | | Change Station
CLOSE
Current Station
Personal Weather Station
Location: Bryson City, NC
Elevation: 1900 ft
Nearby Weather Stations

Elev 1900 ft 35.42 °N, 83.48 °W | Updated 5 minutes ago

Overcast
Overcast
43.9 °F
Feels Like 40 °F
N
6.3
Wind Variable Wind from West

Today
High -- | Low -- °F
--% Chance of Precip.
Yesterday
High -- | Low -- °F
Precip. -- in
7:29 AM 7:52 PM
First Quarter, 56% visible
Pressure 29.85 in
Visibility 10.0 miles
Clouds Scattered Clouds 4800 ft
Mostly Cloudy 7000 ft
Overcast 9000 ft
Windchill 40 °F
Dew Point 28 °F
Humidity 53%
Rainfall 0.15 in
Snow Depth Not available.
UV 0 out of 12
Pollen 7.90 out of 12
Air Quality Not available.
Flu Activity Not available.
METAR KRHP 272236Z AUTO 04008KT 10SM SCT048 BKN070 OVC090 07/01 A2985 RMK AO2

More Conditions Fewer Conditions

Pressure 29.85 in
Visibility 10.0 miles
Clouds Scattered Clouds 4800 ft
Mostly Cloudy 7000 ft
Overcast 9000 ft
Windchill 40 °F
Dew Point 28 °F
Humidity 53%
Rainfall 0.15 in
Snow Depth Not available.
UV 0 out of 12
Pollen 7.90 out of 12
Air Quality Not available.
Flu Activity Not available.
METAR KRHP 272236Z AUTO 04008KT 10SM SCT048 BKN070 OVC090 07/01 A2985 RMK AO2

More Conditions Fewer Conditions

10-Day Weather Forecast

Almanac

Astronomy

Mar. 27, 2015 Rise Set
Actual Time
Civil Twilight
Nautical Twilight
Astronomical Twilight
Moon
Length of Visible Light
Length of Day
Tomorrow will be .
, % of the Moon is Illuminated

Today's Extremes

State Highs State Lows

Community

WunderPhotos

Upload Photos

1,808,856 photos uploaded!

WunderBlogs® & News

Nearby

Air Quality

  Air Quality AQ Index Pollutant
Not available.

Snow Depth

Station Depth Elevation

Earthquake Activity

City Distance Mag. Time & Date
Minimum magnitude displayed is 2.5.

Coastal Water Temperatures

Place Temperature

Stations

Nearby Weather Stations

Station Location Temp. Windchill Dew Point Humidity Wind Precip. Elev Updated Type
                   
Freeze Warning, Freeze Watch
Statement as of 5:45 PM EDT on March 27, 2015

... Freeze warning remains in effect from midnight tonight to noon
EDT Saturday...
... Freeze watch remains in effect from late Saturday night
through Sunday morning...

* locations... the central and southern mountains of North
Carolina and Rabun County Georgia.

* Temperatures... lows tonight and Saturday night from the upper
teens to middle 20s.

* Impacts... very cold temperatures will kill sensitive
vegetation that has already started to grow this season.

Precautionary/preparedness actions...

A freeze warning means sub-freezing temperatures are imminent or
highly likely. These conditions will kill crops and other
sensitive vegetation.

A freeze watch means sub-freezing temperatures are possible.
These conditions could kill crops and other sensitive vegetation.